Rimouski, Canada
Current Conditions -  °F | °C
As of 3:00 AM on Saturday 25 Oct 2014 (Local Time) from CYYY Reporting Station
Broken Clouds Broken Clouds  
Wind Chill: 37°   Ceiling: 10000
Heat Index: 41°   Visibility: 30mi
Dew Point: 30°   Wind: 6mph
Humidity: 65%   Direction: 220°SW
Pressure: 29.69"   Gusts: NA
Location:  48.45°N, 68.52°W
Report Text: CYYY 250700Z 22005KT 30SM BKN100 05/M01 A2969 RMK AC7 SLP055
Loading
Personal Weather Stations






























Interactive Weather Map
Tropical Storm Tracking
New forecast layout! Learn more

10-Day Weather Forecast

Advertisements
Track Severe Weather on mobile